sensor_id;sensor_type;location;lat;lon;timestamp;P1;durP1;ratioP1;P2;durP2;ratioP2
61895;SDS011;47835;52.778;5.956;2024-03-02T00:01:41;5.57;;;2.95;;
61895;SDS011;47835;52.778;5.956;2024-03-02T00:04:07;4.50;;;2.65;;
61895;SDS011;47835;52.778;5.956;2024-03-02T00:06:33;3.88;;;2.78;;
61895;SDS011;47835;52.778;5.956;2024-03-02T00:08:59;5.15;;;3.00;;
61895;SDS011;47835;52.778;5.956;2024-03-02T00:11:25;5.40;;;2.90;;
61895;SDS011;47835;52.778;5.956;2024-03-02T00:13:52;4.57;;;3.08;;
61895;SDS011;47835;52.778;5.956;2024-03-02T00:16:19;3.78;;;2.60;;
61895;SDS011;47835;52.778;5.956;2024-03-02T00:18:45;4.60;;;2.38;;
61895;SDS011;47835;52.778;5.956;2024-03-02T00:21:10;3.50;;;2.78;;
61895;SDS011;47835;52.778;5.956;2024-03-02T00:23:38;3.50;;;2.20;;
61895;SDS011;47835;52.778;5.956;2024-03-02T00:26:04;3.97;;;2.45;;
61895;SDS011;47835;52.778;5.956;2024-03-02T00:28:31;3.92;;;2.30;;
61895;SDS011;47835;52.778;5.956;2024-03-02T00:31:11;4.10;;;3.13;;
61895;SDS011;47835;52.778;5.956;2024-03-02T00:33:42;3.67;;;2.45;;
61895;SDS011;47835;52.778;5.956;2024-03-02T00:36:09;4.20;;;3.08;;
61895;SDS011;47835;52.778;5.956;2024-03-02T00:38:42;3.95;;;2.25;;
61895;SDS011;47835;52.778;5.956;2024-03-02T00:41:22;2.58;;;1.85;;
61895;SDS011;47835;52.778;5.956;2024-03-02T00:44:01;4.40;;;2.65;;
61895;SDS011;47835;52.778;5.956;2024-03-02T00:46:29;3.00;;;2.50;;
61895;SDS011;47835;52.778;5.956;2024-03-02T00:48:59;3.53;;;2.58;;
61895;SDS011;47835;52.778;5.956;2024-03-02T00:51:27;5.00;;;2.40;;
61895;SDS011;47835;52.778;5.956;2024-03-02T00:53:55;3.75;;;2.55;;
61895;SDS011;47835;52.778;5.956;2024-03-02T00:56:23;3.20;;;2.38;;
61895;SDS011;47835;52.778;5.956;2024-03-02T00:58:50;4.28;;;2.08;;
61895;SDS011;47835;52.778;5.956;2024-03-02T01:01:16;3.42;;;2.72;;
61895;SDS011;47835;52.778;5.956;2024-03-02T01:03:42;3.60;;;2.53;;
61895;SDS011;47835;52.778;5.956;2024-03-02T01:06:08;3.67;;;2.47;;
61895;SDS011;47835;52.778;5.956;2024-03-02T01:08:34;3.63;;;2.67;;
61895;SDS011;47835;52.778;5.956;2024-03-02T01:11:01;4.20;;;2.80;;
61895;SDS011;47835;52.778;5.956;2024-03-02T01:13:27;4.45;;;2.67;;
61895;SDS011;47835;52.778;5.956;2024-03-02T01:15:52;3.65;;;2.72;;
61895;SDS011;47835;52.778;5.956;2024-03-02T01:18:21;3.85;;;2.70;;
61895;SDS011;47835;52.778;5.956;2024-03-02T01:20:50;4.80;;;2.70;;
61895;SDS011;47835;52.778;5.956;2024-03-02T01:23:24;3.50;;;2.38;;
61895;SDS011;47835;52.778;5.956;2024-03-02T01:25:50;4.07;;;2.58;;
61895;SDS011;47835;52.778;5.956;2024-03-02T01:28:17;4.00;;;2.20;;
61895;SDS011;47835;52.778;5.956;2024-03-02T01:30:44;3.42;;;2.50;;
61895;SDS011;47835;52.778;5.956;2024-03-02T01:33:09;3.03;;;2.40;;
61895;SDS011;47835;52.778;5.956;2024-03-02T01:35:35;2.92;;;2.00;;
61895;SDS011;47835;52.778;5.956;2024-03-02T01:38:02;2.03;;;1.83;;
61895;SDS011;47835;52.778;5.956;2024-03-02T01:40:28;3.78;;;2.17;;
61895;SDS011;47835;52.778;5.956;2024-03-02T01:42:54;3.95;;;2.40;;
61895;SDS011;47835;52.778;5.956;2024-03-02T01:45:21;3.50;;;2.50;;
61895;SDS011;47835;52.778;5.956;2024-03-02T01:47:47;4.78;;;2.35;;
61895;SDS011;47835;52.778;5.956;2024-03-02T01:50:13;2.28;;;1.80;;
61895;SDS011;47835;52.778;5.956;2024-03-02T01:52:39;3.65;;;1.80;;
61895;SDS011;47835;52.778;5.956;2024-03-02T01:55:05;2.15;;;1.58;;
61895;SDS011;47835;52.778;5.956;2024-03-02T01:57:31;4.03;;;2.10;;
61895;SDS011;47835;52.778;5.956;2024-03-02T01:59:57;3.17;;;1.85;;
61895;SDS011;47835;52.778;5.956;2024-03-02T02:02:23;3.75;;;1.73;;
61895;SDS011;47835;52.778;5.956;2024-03-02T02:04:49;4.20;;;1.90;;
61895;SDS011;47835;52.778;5.956;2024-03-02T02:07:15;1.92;;;1.60;;
61895;SDS011;47835;52.778;5.956;2024-03-02T02:09:43;2.38;;;1.77;;
61895;SDS011;47835;52.778;5.956;2024-03-02T02:12:09;2.63;;;1.92;;
61895;SDS011;47835;52.778;5.956;2024-03-02T02:14:35;3.03;;;1.65;;
61895;SDS011;47835;52.778;5.956;2024-03-02T02:17:01;3.45;;;1.67;;
61895;SDS011;47835;52.778;5.956;2024-03-02T02:19:27;4.65;;;2.53;;
61895;SDS011;47835;52.778;5.956;2024-03-02T02:21:53;2.70;;;1.60;;
61895;SDS011;47835;52.778;5.956;2024-03-02T02:24:19;2.60;;;2.03;;
61895;SDS011;47835;52.778;5.956;2024-03-02T02:26:45;6.30;;;1.88;;
61895;SDS011;47835;52.778;5.956;2024-03-02T02:29:10;2.47;;;1.80;;
61895;SDS011;47835;52.778;5.956;2024-03-02T02:31:37;4.45;;;2.08;;
61895;SDS011;47835;52.778;5.956;2024-03-02T02:34:03;2.28;;;2.00;;
61895;SDS011;47835;52.778;5.956;2024-03-02T02:36:29;2.53;;;2.20;;
61895;SDS011;47835;52.778;5.956;2024-03-02T02:38:55;2.20;;;1.83;;
61895;SDS011;47835;52.778;5.956;2024-03-02T02:41:21;2.88;;;2.22;;
61895;SDS011;47835;52.778;5.956;2024-03-02T02:43:47;2.50;;;1.63;;
61895;SDS011;47835;52.778;5.956;2024-03-02T02:46:13;3.30;;;1.80;;
61895;SDS011;47835;52.778;5.956;2024-03-02T02:48:38;2.05;;;1.70;;
61895;SDS011;47835;52.778;5.956;2024-03-02T02:51:04;2.38;;;1.67;;
61895;SDS011;47835;52.778;5.956;2024-03-02T02:53:29;1.67;;;1.35;;
61895;SDS011;47835;52.778;5.956;2024-03-02T02:55:55;3.38;;;1.42;;
61895;SDS011;47835;52.778;5.956;2024-03-02T02:58:21;1.98;;;1.40;;
61895;SDS011;47835;52.778;5.956;2024-03-02T03:00:46;2.95;;;1.55;;
61895;SDS011;47835;52.778;5.956;2024-03-02T03:03:12;2.92;;;1.60;;
61895;SDS011;47835;52.778;5.956;2024-03-02T03:05:37;2.10;;;1.70;;
61895;SDS011;47835;52.778;5.956;2024-03-02T03:08:03;2.50;;;1.92;;
61895;SDS011;47835;52.778;5.956;2024-03-02T03:10:29;3.17;;;2.15;;
61895;SDS011;47835;52.778;5.956;2024-03-02T03:12:54;2.53;;;1.75;;
61895;SDS011;47835;52.778;5.956;2024-03-02T03:15:21;2.00;;;1.73;;
61895;SDS011;47835;52.778;5.956;2024-03-02T03:17:46;2.15;;;1.77;;
61895;SDS011;47835;52.778;5.956;2024-03-02T03:20:12;2.30;;;1.50;;
61895;SDS011;47835;52.778;5.956;2024-03-02T03:22:40;3.95;;;1.92;;
61895;SDS011;47835;52.778;5.956;2024-03-02T03:25:06;4.43;;;1.80;;
61895;SDS011;47835;52.778;5.956;2024-03-02T03:27:35;2.85;;;2.00;;
61895;SDS011;47835;52.778;5.956;2024-03-02T03:30:01;1.90;;;1.50;;
61895;SDS011;47835;52.778;5.956;2024-03-02T03:32:27;1.95;;;1.50;;
61895;SDS011;47835;52.778;5.956;2024-03-02T03:34:53;2.28;;;1.30;;
61895;SDS011;47835;52.778;5.956;2024-03-02T03:37:19;2.67;;;1.48;;
61895;SDS011;47835;52.778;5.956;2024-03-02T03:39:44;2.60;;;1.50;;
61895;SDS011;47835;52.778;5.956;2024-03-02T03:42:10;2.45;;;1.10;;
61895;SDS011;47835;52.778;5.956;2024-03-02T03:44:36;1.65;;;1.52;;
61895;SDS011;47835;52.778;5.956;2024-03-02T03:47:02;2.58;;;1.15;;
61895;SDS011;47835;52.778;5.956;2024-03-02T03:49:27;1.13;;;1.02;;
61895;SDS011;47835;52.778;5.956;2024-03-02T03:51:53;1.13;;;0.90;;
61895;SDS011;47835;52.778;5.956;2024-03-02T03:54:19;1.65;;;0.90;;
61895;SDS011;47835;52.778;5.956;2024-03-02T03:56:44;1.13;;;1.02;;
61895;SDS011;47835;52.778;5.956;2024-03-02T03:59:10;1.45;;;1.00;;
61895;SDS011;47835;52.778;5.956;2024-03-02T04:01:35;1.40;;;0.90;;
61895;SDS011;47835;52.778;5.956;2024-03-02T04:04:01;1.15;;;0.80;;
61895;SDS011;47835;52.778;5.956;2024-03-02T04:06:28;1.20;;;1.10;;
61895;SDS011;47835;52.778;5.956;2024-03-02T04:08:54;1.13;;;1.02;;
61895;SDS011;47835;52.778;5.956;2024-03-02T04:11:20;1.42;;;1.02;;
61895;SDS011;47835;52.778;5.956;2024-03-02T04:13:46;1.23;;;0.90;;
61895;SDS011;47835;52.778;5.956;2024-03-02T04:16:11;1.10;;;1.00;;
61895;SDS011;47835;52.778;5.956;2024-03-02T04:18:37;1.30;;;1.00;;
61895;SDS011;47835;52.778;5.956;2024-03-02T04:21:04;1.02;;;1.02;;
61895;SDS011;47835;52.778;5.956;2024-03-02T04:23:30;1.85;;;0.90;;
61895;SDS011;47835;52.778;5.956;2024-03-02T04:25:56;2.10;;;0.93;;
61895;SDS011;47835;52.778;5.956;2024-03-02T04:28:21;1.50;;;1.00;;
61895;SDS011;47835;52.778;5.956;2024-03-02T04:30:47;1.08;;;0.90;;
61895;SDS011;47835;52.778;5.956;2024-03-02T04:33:13;1.38;;;1.10;;
61895;SDS011;47835;52.778;5.956;2024-03-02T04:35:38;1.48;;;1.13;;
61895;SDS011;47835;52.778;5.956;2024-03-02T04:38:04;0.90;;;0.90;;
61895;SDS011;47835;52.778;5.956;2024-03-02T04:40:29;0.80;;;0.80;;
61895;SDS011;47835;52.778;5.956;2024-03-02T04:42:55;2.65;;;0.90;;
61895;SDS011;47835;52.778;5.956;2024-03-02T04:45:21;1.00;;;0.90;;
61895;SDS011;47835;52.778;5.956;2024-03-02T04:47:46;1.85;;;1.10;;
61895;SDS011;47835;52.778;5.956;2024-03-02T04:50:12;1.30;;;1.20;;
61895;SDS011;47835;52.778;5.956;2024-03-02T04:52:38;1.15;;;1.05;;
61895;SDS011;47835;52.778;5.956;2024-03-02T04:55:04;1.50;;;1.15;;
61895;SDS011;47835;52.778;5.956;2024-03-02T04:57:50;1.85;;;1.25;;
61895;SDS011;47835;52.778;5.956;2024-03-02T05:00:19;1.35;;;1.25;;
61895;SDS011;47835;52.778;5.956;2024-03-02T05:02:45;1.25;;;1.08;;
61895;SDS011;47835;52.778;5.956;2024-03-02T05:05:11;1.33;;;1.23;;
61895;SDS011;47835;52.778;5.956;2024-03-02T05:07:37;1.30;;;1.20;;
61895;SDS011;47835;52.778;5.956;2024-03-02T05:10:02;1.30;;;1.20;;
61895;SDS011;47835;52.778;5.956;2024-03-02T05:12:28;1.40;;;1.30;;
61895;SDS011;47835;52.778;5.956;2024-03-02T05:15:20;1.48;;;1.25;;
61895;SDS011;47835;52.778;5.956;2024-03-02T05:17:46;3.22;;;1.75;;
61895;SDS011;47835;52.778;5.956;2024-03-02T05:20:12;1.40;;;1.30;;
61895;SDS011;47835;52.778;5.956;2024-03-02T05:22:38;2.30;;;1.77;;
61895;SDS011;47835;52.778;5.956;2024-03-02T05:25:04;1.75;;;1.60;;
61895;SDS011;47835;52.778;5.956;2024-03-02T05:27:31;1.60;;;1.50;;
61895;SDS011;47835;52.778;5.956;2024-03-02T05:29:59;1.50;;;1.40;;
61895;SDS011;47835;52.778;5.956;2024-03-02T05:32:25;1.50;;;1.40;;
61895;SDS011;47835;52.778;5.956;2024-03-02T05:34:51;1.90;;;1.80;;
61895;SDS011;47835;52.778;5.956;2024-03-02T05:37:17;1.55;;;1.45;;
61895;SDS011;47835;52.778;5.956;2024-03-02T05:39:43;1.60;;;1.40;;
61895;SDS011;47835;52.778;5.956;2024-03-02T05:42:09;2.17;;;1.52;;
61895;SDS011;47835;52.778;5.956;2024-03-02T05:44:35;2.60;;;1.30;;
61895;SDS011;47835;52.778;5.956;2024-03-02T05:47:01;1.90;;;1.60;;
61895;SDS011;47835;52.778;5.956;2024-03-02T05:49:28;1.40;;;1.30;;
61895;SDS011;47835;52.778;5.956;2024-03-02T05:51:54;1.75;;;1.65;;
61895;SDS011;47835;52.778;5.956;2024-03-02T05:54:19;1.70;;;1.60;;
61895;SDS011;47835;52.778;5.956;2024-03-02T05:56:45;3.03;;;1.70;;
61895;SDS011;47835;52.778;5.956;2024-03-02T05:59:11;1.40;;;1.30;;
61895;SDS011;47835;52.778;5.956;2024-03-02T06:01:40;2.20;;;1.40;;
61895;SDS011;47835;52.778;5.956;2024-03-02T06:04:09;1.60;;;1.50;;
61895;SDS011;47835;52.778;5.956;2024-03-02T06:06:38;2.22;;;1.50;;
61895;SDS011;47835;52.778;5.956;2024-03-02T06:09:04;1.70;;;1.60;;
61895;SDS011;47835;52.778;5.956;2024-03-02T06:11:36;3.47;;;2.10;;
61895;SDS011;47835;52.778;5.956;2024-03-02T06:14:02;1.90;;;1.77;;
61895;SDS011;47835;52.778;5.956;2024-03-02T06:16:29;2.05;;;1.92;;
61895;SDS011;47835;52.778;5.956;2024-03-02T06:18:55;2.08;;;1.70;;
61895;SDS011;47835;52.778;5.956;2024-03-02T06:21:23;1.83;;;1.65;;
61895;SDS011;47835;52.778;5.956;2024-03-02T06:23:49;2.55;;;2.03;;
61895;SDS011;47835;52.778;5.956;2024-03-02T06:26:14;2.13;;;1.90;;
61895;SDS011;47835;52.778;5.956;2024-03-02T06:28:40;2.40;;;2.20;;
61895;SDS011;47835;52.778;5.956;2024-03-02T06:31:06;2.22;;;2.03;;
61895;SDS011;47835;52.778;5.956;2024-03-02T06:33:32;2.10;;;2.00;;
61895;SDS011;47835;52.778;5.956;2024-03-02T06:35:57;2.40;;;2.30;;
61895;SDS011;47835;52.778;5.956;2024-03-02T06:38:23;3.03;;;2.40;;
61895;SDS011;47835;52.778;5.956;2024-03-02T06:40:48;2.45;;;2.35;;
61895;SDS011;47835;52.778;5.956;2024-03-02T06:43:14;2.63;;;2.20;;
61895;SDS011;47835;52.778;5.956;2024-03-02T06:45:43;2.20;;;2.10;;
61895;SDS011;47835;52.778;5.956;2024-03-02T06:48:09;2.33;;;2.20;;
61895;SDS011;47835;52.778;5.956;2024-03-02T06:50:34;3.17;;;2.53;;
61895;SDS011;47835;52.778;5.956;2024-03-02T06:53:00;2.20;;;2.10;;
61895;SDS011;47835;52.778;5.956;2024-03-02T06:55:26;2.72;;;2.50;;
61895;SDS011;47835;52.778;5.956;2024-03-02T06:57:51;2.45;;;2.25;;
61895;SDS011;47835;52.778;5.956;2024-03-02T07:00:17;2.47;;;2.28;;
61895;SDS011;47835;52.778;5.956;2024-03-02T07:02:45;2.40;;;2.20;;
61895;SDS011;47835;52.778;5.956;2024-03-02T07:05:11;2.53;;;2.33;;
61895;SDS011;47835;52.778;5.956;2024-03-02T07:07:37;2.30;;;2.20;;
61895;SDS011;47835;52.778;5.956;2024-03-02T07:10:06;2.67;;;2.40;;
61895;SDS011;47835;52.778;5.956;2024-03-02T07:12:32;3.33;;;2.60;;
61895;SDS011;47835;52.778;5.956;2024-03-02T07:14:58;2.50;;;2.30;;
61895;SDS011;47835;52.778;5.956;2024-03-02T07:17:29;2.60;;;2.40;;
61895;SDS011;47835;52.778;5.956;2024-03-02T07:19:56;2.40;;;2.20;;
61895;SDS011;47835;52.778;5.956;2024-03-02T07:22:22;2.83;;;2.50;;
61895;SDS011;47835;52.778;5.956;2024-03-02T07:24:48;2.47;;;2.28;;
61895;SDS011;47835;52.778;5.956;2024-03-02T07:27:14;5.05;;;2.53;;
61895;SDS011;47835;52.778;5.956;2024-03-02T07:29:41;2.53;;;2.33;;
61895;SDS011;47835;52.778;5.956;2024-03-02T07:32:07;2.42;;;2.28;;
61895;SDS011;47835;52.778;5.956;2024-03-02T07:34:33;2.90;;;2.15;;
61895;SDS011;47835;52.778;5.956;2024-03-02T07:36:59;3.58;;;2.40;;
61895;SDS011;47835;52.778;5.956;2024-03-02T07:39:25;2.40;;;2.20;;
61895;SDS011;47835;52.778;5.956;2024-03-02T07:41:50;3.83;;;2.45;;
61895;SDS011;47835;52.778;5.956;2024-03-02T07:44:16;2.63;;;2.42;;
61895;SDS011;47835;52.778;5.956;2024-03-02T07:46:44;2.40;;;2.20;;
61895;SDS011;47835;52.778;5.956;2024-03-02T07:49:20;2.67;;;2.47;;
61895;SDS011;47835;52.778;5.956;2024-03-02T07:51:45;2.92;;;2.55;;
61895;SDS011;47835;52.778;5.956;2024-03-02T07:54:11;3.00;;;2.67;;
61895;SDS011;47835;52.778;5.956;2024-03-02T07:56:37;2.80;;;2.42;;
61895;SDS011;47835;52.778;5.956;2024-03-02T07:59:03;2.50;;;2.30;;
61895;SDS011;47835;52.778;5.956;2024-03-02T08:01:29;3.53;;;2.28;;
61895;SDS011;47835;52.778;5.956;2024-03-02T08:03:58;2.60;;;2.40;;
61895;SDS011;47835;52.778;5.956;2024-03-02T08:06:28;2.47;;;2.28;;
61895;SDS011;47835;52.778;5.956;2024-03-02T08:08:55;2.38;;;2.17;;
61895;SDS011;47835;52.778;5.956;2024-03-02T08:11:24;2.25;;;2.10;;
61895;SDS011;47835;52.778;5.956;2024-03-02T08:13:52;3.65;;;2.05;;
61895;SDS011;47835;52.778;5.956;2024-03-02T08:16:19;2.13;;;2.00;;
61895;SDS011;47835;52.778;5.956;2024-03-02T08:18:47;2.25;;;2.00;;
61895;SDS011;47835;52.778;5.956;2024-03-02T08:21:14;2.80;;;2.10;;
61895;SDS011;47835;52.778;5.956;2024-03-02T08:23:40;2.55;;;2.10;;
61895;SDS011;47835;52.778;5.956;2024-03-02T08:26:07;5.70;;;3.40;;
61895;SDS011;47835;52.778;5.956;2024-03-02T08:28:33;4.10;;;3.70;;
61895;SDS011;47835;52.778;5.956;2024-03-02T08:30:59;6.75;;;3.83;;
61895;SDS011;47835;52.778;5.956;2024-03-02T08:33:25;9.93;;;6.47;;
61895;SDS011;47835;52.778;5.956;2024-03-02T08:35:50;11.30;;;6.50;;
61895;SDS011;47835;52.778;5.956;2024-03-02T08:38:16;7.95;;;4.80;;
61895;SDS011;47835;52.778;5.956;2024-03-02T08:40:42;5.75;;;3.67;;
61895;SDS011;47835;52.778;5.956;2024-03-02T08:43:09;8.38;;;4.50;;
61895;SDS011;47835;52.778;5.956;2024-03-02T08:45:34;5.30;;;2.92;;
61895;SDS011;47835;52.778;5.956;2024-03-02T08:48:00;16.73;;;10.32;;
61895;SDS011;47835;52.778;5.956;2024-03-02T08:50:26;14.60;;;8.07;;
61895;SDS011;47835;52.778;5.956;2024-03-02T08:52:52;11.40;;;6.80;;
61895;SDS011;47835;52.778;5.956;2024-03-02T08:55:17;11.00;;;6.72;;
61895;SDS011;47835;52.778;5.956;2024-03-02T08:57:43;7.95;;;5.15;;
61895;SDS011;47835;52.778;5.956;2024-03-02T09:00:09;7.00;;;3.55;;
61895;SDS011;47835;52.778;5.956;2024-03-02T09:02:35;10.48;;;7.35;;
61895;SDS011;47835;52.778;5.956;2024-03-02T09:05:01;2.60;;;1.35;;
61895;SDS011;47835;52.778;5.956;2024-03-02T09:07:27;3.13;;;1.80;;
61895;SDS011;47835;52.778;5.956;2024-03-02T09:09:52;2.35;;;1.42;;
61895;SDS011;47835;52.778;5.956;2024-03-02T09:12:18;2.20;;;1.42;;
61895;SDS011;47835;52.778;5.956;2024-03-02T09:14:44;2.83;;;1.45;;
61895;SDS011;47835;52.778;5.956;2024-03-02T09:17:11;2.67;;;1.40;;
61895;SDS011;47835;52.778;5.956;2024-03-02T09:19:37;2.65;;;1.70;;
61895;SDS011;47835;52.778;5.956;2024-03-02T09:22:04;3.83;;;2.38;;
61895;SDS011;47835;52.778;5.956;2024-03-02T09:24:30;5.50;;;2.72;;
61895;SDS011;47835;52.778;5.956;2024-03-02T09:26:56;3.60;;;2.03;;
61895;SDS011;47835;52.778;5.956;2024-03-02T09:29:22;4.63;;;1.90;;
61895;SDS011;47835;52.778;5.956;2024-03-02T09:31:50;5.80;;;4.28;;
61895;SDS011;47835;52.778;5.956;2024-03-02T09:34:16;10.85;;;5.03;;
61895;SDS011;47835;52.778;5.956;2024-03-02T09:36:42;5.57;;;3.40;;
61895;SDS011;47835;52.778;5.956;2024-03-02T09:39:08;4.38;;;2.65;;
61895;SDS011;47835;52.778;5.956;2024-03-02T09:41:35;3.38;;;2.30;;
61895;SDS011;47835;52.778;5.956;2024-03-02T09:44:02;3.30;;;3.00;;
61895;SDS011;47835;52.778;5.956;2024-03-02T09:46:28;2.22;;;2.03;;
61895;SDS011;47835;52.778;5.956;2024-03-02T09:48:54;2.10;;;1.90;;
61895;SDS011;47835;52.778;5.956;2024-03-02T09:51:20;2.63;;;1.73;;
61895;SDS011;47835;52.778;5.956;2024-03-02T09:53:45;1.80;;;1.50;;
61895;SDS011;47835;52.778;5.956;2024-03-02T09:56:12;3.55;;;2.00;;
61895;SDS011;47835;52.778;5.956;2024-03-02T09:58:38;3.17;;;1.70;;
61895;SDS011;47835;52.778;5.956;2024-03-02T10:01:07;3.33;;;1.95;;
61895;SDS011;47835;52.778;5.956;2024-03-02T10:03:39;3.13;;;1.80;;
61895;SDS011;47835;52.778;5.956;2024-03-02T10:06:24;2.35;;;1.83;;
61895;SDS011;47835;52.778;5.956;2024-03-02T10:08:51;11.98;;;5.47;;
61895;SDS011;47835;52.778;5.956;2024-03-02T10:16:39;14.80;;;7.15;;
61895;SDS011;47835;52.778;5.956;2024-03-02T10:19:16;2.25;;;2.05;;
61895;SDS011;47835;52.778;5.956;2024-03-02T10:21:43;5.47;;;2.45;;
61895;SDS011;47835;52.778;5.956;2024-03-02T10:24:10;2.58;;;1.55;;
61895;SDS011;47835;52.778;5.956;2024-03-02T10:26:36;2.53;;;1.20;;
61895;SDS011;47835;52.778;5.956;2024-03-02T10:29:02;4.30;;;1.65;;
61895;SDS011;47835;52.778;5.956;2024-03-02T10:31:28;3.30;;;1.33;;
61895;SDS011;47835;52.778;5.956;2024-03-02T10:34:03;4.47;;;1.90;;
61895;SDS011;47835;52.778;5.956;2024-03-02T10:36:29;7.10;;;3.53;;
61895;SDS011;47835;52.778;5.956;2024-03-02T10:38:58;6.50;;;3.13;;
61895;SDS011;47835;52.778;5.956;2024-03-02T10:41:24;5.72;;;2.47;;
61895;SDS011;47835;52.778;5.956;2024-03-02T10:43:55;5.65;;;2.20;;
61895;SDS011;47835;52.778;5.956;2024-03-02T10:46:27;2.03;;;1.50;;
61895;SDS011;47835;52.778;5.956;2024-03-02T10:48:57;9.45;;;3.58;;
61895;SDS011;47835;52.778;5.956;2024-03-02T10:51:27;4.97;;;1.90;;
61895;SDS011;47835;52.778;5.956;2024-03-02T10:53:56;3.72;;;1.90;;
61895;SDS011;47835;52.778;5.956;2024-03-02T10:56:39;2.10;;;1.20;;
61895;SDS011;47835;52.778;5.956;2024-03-02T11:01:34;2.72;;;1.00;;
61895;SDS011;47835;52.778;5.956;2024-03-02T11:04:02;4.10;;;1.45;;
61895;SDS011;47835;52.778;5.956;2024-03-02T11:06:31;2.97;;;1.77;;
61895;SDS011;47835;52.778;5.956;2024-03-02T11:09:00;2.60;;;1.30;;
61895;SDS011;47835;52.778;5.956;2024-03-02T11:11:32;2.22;;;1.20;;
61895;SDS011;47835;52.778;5.956;2024-03-02T11:14:04;2.00;;;1.00;;
61895;SDS011;47835;52.778;5.956;2024-03-02T11:16:34;2.33;;;1.20;;
61895;SDS011;47835;52.778;5.956;2024-03-02T11:19:05;6.72;;;2.10;;
61895;SDS011;47835;52.778;5.956;2024-03-02T11:21:33;3.53;;;1.30;;
61895;SDS011;47835;52.778;5.956;2024-03-02T11:24:00;0.80;;;0.80;;
61895;SDS011;47835;52.778;5.956;2024-03-02T11:26:45;2.90;;;1.10;;
61895;SDS011;47835;52.778;5.956;2024-03-02T11:29:38;4.40;;;1.58;;
61895;SDS011;47835;52.778;5.956;2024-03-02T11:32:00;1.63;;;1.00;;
61895;SDS011;47835;52.778;5.956;2024-03-02T11:34:33;19.63;;;9.55;;
61895;SDS011;47835;52.778;5.956;2024-03-02T11:37:03;15.10;;;6.55;;
61895;SDS011;47835;52.778;5.956;2024-03-02T11:39:29;3.60;;;1.40;;
61895;SDS011;47835;52.778;5.956;2024-03-02T11:41:56;5.70;;;2.90;;
61895;SDS011;47835;52.778;5.956;2024-03-02T11:44:24;8.18;;;4.25;;
61895;SDS011;47835;52.778;5.956;2024-03-02T11:47:00;7.40;;;3.50;;
61895;SDS011;47835;52.778;5.956;2024-03-02T11:52:09;3.38;;;1.40;;
61895;SDS011;47835;52.778;5.956;2024-03-02T11:54:36;8.25;;;3.08;;
61895;SDS011;47835;52.778;5.956;2024-03-02T11:57:11;3.42;;;1.98;;
61895;SDS011;47835;52.778;5.956;2024-03-02T11:59:37;4.10;;;2.20;;
61895;SDS011;47835;52.778;5.956;2024-03-02T12:02:03;4.50;;;2.10;;
61895;SDS011;47835;52.778;5.956;2024-03-02T12:04:29;2.42;;;1.20;;
61895;SDS011;47835;52.778;5.956;2024-03-02T12:06:59;1.38;;;1.00;;
61895;SDS011;47835;52.778;5.956;2024-03-02T12:09:26;2.22;;;1.02;;
61895;SDS011;47835;52.778;5.956;2024-03-02T12:12:08;2.10;;;1.33;;
61895;SDS011;47835;52.778;5.956;2024-03-02T12:14:35;2.72;;;0.95;;
61895;SDS011;47835;52.778;5.956;2024-03-02T12:17:02;1.63;;;1.10;;
61895;SDS011;47835;52.778;5.956;2024-03-02T12:19:29;3.22;;;1.00;;
61895;SDS011;47835;52.778;5.956;2024-03-02T12:21:58;4.03;;;1.23;;
61895;SDS011;47835;52.778;5.956;2024-03-02T12:24:26;2.00;;;1.00;;
61895;SDS011;47835;52.778;5.956;2024-03-02T12:26:53;5.07;;;1.13;;
61895;SDS011;47835;52.778;5.956;2024-03-02T12:29:19;3.05;;;1.45;;
61895;SDS011;47835;52.778;5.956;2024-03-02T12:31:49;2.22;;;1.20;;
61895;SDS011;47835;52.778;5.956;2024-03-02T12:34:17;2.75;;;1.15;;
61895;SDS011;47835;52.778;5.956;2024-03-02T12:36:45;1.52;;;0.88;;
61895;SDS011;47835;52.778;5.956;2024-03-02T12:39:16;3.00;;;1.73;;
61895;SDS011;47835;52.778;5.956;2024-03-02T12:41:42;2.05;;;0.90;;
61895;SDS011;47835;52.778;5.956;2024-03-02T12:44:08;4.07;;;1.40;;
61895;SDS011;47835;52.778;5.956;2024-03-02T12:46:34;2.72;;;1.80;;
61895;SDS011;47835;52.778;5.956;2024-03-02T12:49:07;2.58;;;1.83;;
61895;SDS011;47835;52.778;5.956;2024-03-02T12:51:35;3.35;;;1.50;;
61895;SDS011;47835;52.778;5.956;2024-03-02T12:54:01;3.90;;;1.95;;
61895;SDS011;47835;52.778;5.956;2024-03-02T12:56:28;3.47;;;2.10;;
61895;SDS011;47835;52.778;5.956;2024-03-02T12:58:55;5.30;;;3.28;;
61895;SDS011;47835;52.778;5.956;2024-03-02T13:01:29;3.28;;;1.40;;
61895;SDS011;47835;52.778;5.956;2024-03-02T13:03:55;4.60;;;1.17;;
61895;SDS011;47835;52.778;5.956;2024-03-02T13:06:23;4.32;;;1.70;;
61895;SDS011;47835;52.778;5.956;2024-03-02T13:08:53;10.50;;;4.70;;
61895;SDS011;47835;52.778;5.956;2024-03-02T13:11:22;11.13;;;6.38;;
61895;SDS011;47835;52.778;5.956;2024-03-02T13:13:49;10.63;;;4.88;;
61895;SDS011;47835;52.778;5.956;2024-03-02T13:16:15;8.95;;;3.90;;
61895;SDS011;47835;52.778;5.956;2024-03-02T13:18:42;5.22;;;2.45;;
61895;SDS011;47835;52.778;5.956;2024-03-02T13:21:09;7.68;;;2.55;;
61895;SDS011;47835;52.778;5.956;2024-03-02T13:23:35;3.63;;;1.98;;
61895;SDS011;47835;52.778;5.956;2024-03-02T13:26:01;5.30;;;2.60;;
61895;SDS011;47835;52.778;5.956;2024-03-02T13:28:27;2.65;;;1.73;;
61895;SDS011;47835;52.778;5.956;2024-03-02T13:30:56;4.00;;;1.63;;
61895;SDS011;47835;52.778;5.956;2024-03-02T13:33:22;5.55;;;3.03;;
61895;SDS011;47835;52.778;5.956;2024-03-02T13:35:48;7.57;;;3.25;;
61895;SDS011;47835;52.778;5.956;2024-03-02T13:38:16;6.93;;;2.53;;
61895;SDS011;47835;52.778;5.956;2024-03-02T13:40:45;4.80;;;2.00;;
61895;SDS011;47835;52.778;5.956;2024-03-02T13:43:13;3.15;;;1.70;;
61895;SDS011;47835;52.778;5.956;2024-03-02T13:45:39;4.78;;;1.60;;
61895;SDS011;47835;52.778;5.956;2024-03-02T13:48:11;4.40;;;1.92;;
61895;SDS011;47835;52.778;5.956;2024-03-02T13:50:39;2.65;;;1.60;;
61895;SDS011;47835;52.778;5.956;2024-03-02T13:53:05;3.28;;;1.58;;
61895;SDS011;47835;52.778;5.956;2024-03-02T13:55:32;2.60;;;1.95;;
61895;SDS011;47835;52.778;5.956;2024-03-02T13:57:58;2.80;;;1.50;;
61895;SDS011;47835;52.778;5.956;2024-03-02T14:00:24;3.70;;;1.80;;
61895;SDS011;47835;52.778;5.956;2024-03-02T14:02:50;2.35;;;1.40;;
61895;SDS011;47835;52.778;5.956;2024-03-02T14:05:16;4.13;;;2.35;;
61895;SDS011;47835;52.778;5.956;2024-03-02T14:07:42;2.38;;;2.10;;
61895;SDS011;47835;52.778;5.956;2024-03-02T14:10:08;2.22;;;1.70;;
61895;SDS011;47835;52.778;5.956;2024-03-02T14:12:34;2.40;;;1.90;;
61895;SDS011;47835;52.778;5.956;2024-03-02T14:15:00;3.45;;;1.65;;
61895;SDS011;47835;52.778;5.956;2024-03-02T14:17:27;4.03;;;1.98;;
61895;SDS011;47835;52.778;5.956;2024-03-02T14:19:53;3.33;;;1.90;;
61895;SDS011;47835;52.778;5.956;2024-03-02T14:22:19;4.63;;;2.63;;
61895;SDS011;47835;52.778;5.956;2024-03-02T14:24:46;2.45;;;2.22;;
61895;SDS011;47835;52.778;5.956;2024-03-02T14:27:12;4.03;;;1.70;;
61895;SDS011;47835;52.778;5.956;2024-03-02T14:29:39;2.72;;;1.60;;
61895;SDS011;47835;52.778;5.956;2024-03-02T14:32:05;3.80;;;1.80;;
61895;SDS011;47835;52.778;5.956;2024-03-02T14:34:31;3.08;;;1.92;;
61895;SDS011;47835;52.778;5.956;2024-03-02T14:36:58;2.05;;;1.85;;
61895;SDS011;47835;52.778;5.956;2024-03-02T14:39:23;2.88;;;2.05;;
61895;SDS011;47835;52.778;5.956;2024-03-02T14:41:49;2.13;;;1.70;;
61895;SDS011;47835;52.778;5.956;2024-03-02T14:44:15;2.20;;;1.70;;
61895;SDS011;47835;52.778;5.956;2024-03-02T14:46:41;5.10;;;2.20;;
61895;SDS011;47835;52.778;5.956;2024-03-02T14:49:07;3.05;;;1.95;;
61895;SDS011;47835;52.778;5.956;2024-03-02T14:51:33;2.80;;;1.95;;
61895;SDS011;47835;52.778;5.956;2024-03-02T14:53:59;1.98;;;1.60;;
61895;SDS011;47835;52.778;5.956;2024-03-02T14:56:24;2.75;;;1.70;;
61895;SDS011;47835;52.778;5.956;2024-03-02T14:58:50;2.95;;;2.13;;